Data for 11/20/2013

Time Sea-Level Adjusted Pressure Absolute Pressure Temperature Relative Humidity Dew Point   
(mb) (inHg) (mb) (inHg) (C) (F) (%) (C) (F)
00:05 1008 29.77 837 24.72 8.7 47.7 37 -5.1 22.9
00:10 1008 29.77 837 24.72 8.7 47.7 37 -5 22.9
00:15 1008 29.77 837 24.72 8.7 47.7 37 -5.1 22.8
00:20 1008 29.77 837 24.72 8.7 47.7 37 -5.1 22.8
00:25 1008 29.77 837 24.72 8.6 47.6 38 -5 23
00:30 1008 29.77 837 24.72 8.5 47.4 38 -4.8 23.3
00:35 1008 29.77 837 24.72 8.3 47 39 -4.8 23.4
00:40 1008 29.77 837 24.72 8.2 46.8 40 -4.7 23.5
00:45 1008 29.77 837 24.72 8.2 46.7 40 -4.8 23.4
00:50 1008 29.77 837 24.72 8.2 46.7 40 -4.8 23.4
00:55 1008 29.77 837 24.72 8.4 47 39 -4.9 23.2
01:00 1008 29.77 837 24.72 8.4 47.2 38 -5 23
01:05 1008 29.77 837 24.72 8.7 47.6 38 -4.9 23.2
01:10 1008 29.77 837 24.72 8.6 47.5 37 -5.2 22.7
01:15 1008 29.77 837 24.72 8.8 47.8 37 -5.2 22.7
01:20 1008 29.77 837 24.72 8.8 47.9 37 -4.9 23.1
01:25 1008 29.77 837 24.72 8.7 47.6 39 -4.6 23.7
01:30 1008 29.77 837 24.72 8.4 47.2 38 -4.9 23.2
01:35 1008 29.77 837 24.72 8.5 47.3 38 -4.9 23.3
01:40 1008 29.77 837 24.72 8.5 47.3 39 -4.8 23.4
01:45 1008 29.77 837 24.72 8.5 47.3 38 -4.9 23.1
01:50 1008 29.77 837 24.72 8.5 47.3 39 -4.7 23.5
01:55 1008 29.77 837 24.72 8.5 47.2 39 -4.8 23.3
02:00 1008 29.77 837 24.72 8.5 47.3 39 -4.8 23.4
02:05 1008 29.77 837 24.72 8.5 47.2 39 -4.8 23.4
02:10 1008 29.77 837 24.72 8.5 47.3 38 -4.8 23.3
02:15 1008 29.77 837 24.72 8.5 47.4 38 -5.1 22.9
02:20 1008 29.77 837 24.72 8.6 47.5 38 -4.9 23.1
02:25 1008 29.77 837 24.72 8.5 47.4 38 -4.9 23.1
02:30 1008 29.77 837 24.72 8.5 47.3 38 -4.9 23.2
02:35 1008 29.77 837 24.72 8.5 47.2 39 -4.7 23.5
02:40 1008 29.77 837 24.72 8.4 47 40 -4.6 23.7
02:45 1008 29.77 837 24.72 8.2 46.7 40 -4.6 23.7
02:50 1008 29.77 837 24.72 8.3 46.9 40 -4.6 23.8
02:55 1008 29.77 837 24.72 8.2 46.7 40 -4.5 23.8
03:00 1008 29.77 837 24.72 8.1 46.5 40 -4.6 23.7
03:05 1008 29.77 837 24.72 8.1 46.5 40 -4.6 23.8
03:10 1008 29.77 837 24.72 7.9 46.3 42 -4.3 24.2
03:15 1008 29.77 837 24.72 7.7 45.8 43 -4.2 24.4
03:20 1008 29.77 837 24.72 7.6 45.6 42 -4.4 24.1
03:25 1008 29.77 837 24.72 7.6 45.7 41 -4.7 23.5
03:30 1008 29.77 837 24.72 7.9 46.1 40 -4.7 23.5
03:35 1008 29.77 837 24.72 8.2 46.8 39 -4.9 23.2
03:40 1008 29.77 837 24.72 8.6 47.4 48 -1.8 28.7
03:45 1008 29.77 837 24.72 7.9 46.2 50 -1.8 28.8
03:50 1008 29.77 837 24.72 7.6 45.7 51 -1.7 28.9
03:55 1008 29.77 837 24.72 7.4 45.2 53 -1.6 29.2
04:00 1008 29.77 837 24.72 7.1 44.8 52 -2.1 28.2
04:05 1008 29.77 837 24.72 7.2 45 52 -1.9 28.5
04:10 1008 29.77 837 24.72 7.2 45 53 -1.8 28.8
04:15 1008 29.77 837 24.72 7.2 44.9 53 -1.8 28.8
04:20 1008 29.77 837 24.72 7.2 45 53 -1.7 29
04:25 1008 29.77 837 24.72 7.2 44.9 53 -1.7 29
04:30 1008 29.77 837 24.72 7.2 44.9 53 -1.7 29
04:35 1008 29.77 837 24.72 7.2 44.9 54 -1.5 29.2
04:40 1008 29.77 837 24.72 7.1 44.7 54 -1.7 29
04:45 1008 29.77 837 24.72 7.1 44.8 53 -1.7 28.9
04:50 1008 29.77 837 24.72 7.1 44.8 54 -1.6 29.1
04:55 1008 29.77 837 24.72 7.1 44.8 52 -2.2 28.1
05:00 1007 29.74 837 24.72 7.1 44.7 55 -1.2 29.8
05:05 1007 29.74 837 24.72 6.6 43.9 58 -1.1 30
05:10 1007 29.74 837 24.72 6.4 43.6 57 -1.5 29.2
05:15 1007 29.74 836 24.69 6.8 44.2 51 -2.6 27.4
05:20 1007 29.74 836 24.69 7.3 45.1 53 -1.7 29
05:25 1007 29.74 836 24.69 6.9 44.5 55 -1.6 29.2
05:30 1007 29.74 836 24.69 6.7 44.1 49 -3.3 26
05:35 1007 29.74 836 24.69 7.2 44.9 51 -2.2 28.1
05:40 1007 29.74 836 24.69 6.8 44.2 54 -1.9 28.7
05:45 1007 29.74 836 24.69 7.2 44.9 45 -4 24.8
05:50 1007 29.74 836 24.69 7.9 46.3 45 -3.4 25.9
05:55 1007 29.74 836 24.69 7.8 46.1 46 -3.1 26.4
06:00 1007 29.74 836 24.69 7.7 45.8 47 -3 26.5
06:05 1007 29.74 836 24.69 7.6 45.6 45 -3.7 25.3
06:10 1007 29.74 836 24.69 7.7 45.8 45 -3.5 25.8
06:15 1007 29.74 836 24.69 7.7 45.8 45 -3.4 25.9
06:20 1007 29.74 836 24.69 7.6 45.6 44 -3.8 25.2
06:25 1007 29.74 836 24.69 7.6 45.6 46 -3.4 25.8
06:30 1007 29.74 836 24.69 7.5 45.5 46 -3.2 26.2
06:35 1007 29.74 836 24.69 7.2 44.9 50 -2.5 27.4
06:40 1007 29.74 836 24.69 6.7 44.1 52 -2.4 27.7
06:45 1007 29.74 836 24.69 6.5 43.7 54 -2.2 28.1
06:50 1007 29.74 836 24.69 6.4 43.6 55 -2 28.4
06:55 1007 29.74 836 24.69 6.3 43.4 55 -2.1 28.2
07:00 1007 29.74 836 24.69 6.4 43.6 55 -2 28.4
07:05 1007 29.74 836 24.69 6.4 43.6 55 -1.8 28.7
07:10 1007 29.74 836 24.69 6.5 43.6 54 -2.2 28.1
07:15 1007 29.74 836 24.69 6.4 43.5 55 -2.1 28.2
07:20 1007 29.74 836 24.69 6.4 43.5 53 -2.4 27.6
07:25 1007 29.74 836 24.69 6.6 43.8 52 -2.5 27.5
07:30 1007 29.74 836 24.69 6.6 43.9 51 -2.7 27.2
07:35 1007 29.74 836 24.69 6.6 43.9 53 -2.3 27.9
07:40 1007 29.74 836 24.69 6.5 43.6 53 -2.4 27.7
07:45 1007 29.74 836 24.69 6.5 43.6 52 -2.7 27.1
07:50 1007 29.74 836 24.69 6.5 43.7 52 -2.7 27.2
07:55 1007 29.74 836 24.69 6.6 43.9 52 -2.5 27.6
08:00 1007 29.74 836 24.69 6.6 43.9 54 -2 28.4
08:05 1007 29.74 836 24.69 6.5 43.8 56 -1.6 29
08:10 1007 29.74 836 24.69 6.5 43.6 57 -1.3 29.6
08:15 1007 29.74 836 24.69 6.2 43.1 59 -1.2 29.9
08:20 1007 29.74 837 24.72 6 42.8 60 -1.2 29.8
08:25 1007 29.74 837 24.72 5.9 42.6 61 -1.1 30.1
08:30 1008 29.77 837 24.72 5.8 42.4 63 -0.7 30.8
08:35 1008 29.77 837 24.72 5.5 41.9 66 -0.4 31.3
08:40 1008 29.77 837 24.72 5.3 41.6 67 -0.4 31.3
08:45 1008 29.77 837 24.72 5.2 41.3 69 -0 32
08:50 1008 29.77 837 24.72 5 40.9 73 0.5 32.8
08:55 1008 29.77 837 24.72 4.6 40.3 76 0.7 33.2
09:00 1008 29.77 838 24.75 4 39.2 81 1 33.8
09:05 1009 29.8 838 24.75 3.3 38 86 1.2 34.1
09:10 1009 29.8 838 24.75 2.6 36.6 88 0.8 33.4
09:15 1009 29.8 838 24.75 1.6 34.9 91 0.3 32.6
09:20 1009 29.8 838 24.75 1.1 33.9 92 -0 31.9
09:25 1009 29.8 838 24.75 0.8 33.5 93 -0.1 31.8
09:30 1009 29.8 839 24.78 0.8 33.5 93 -0.1 31.8
09:35 1010 29.83 839 24.78 0.7 33.2 94 -0.2 31.6
09:40 1010 29.83 839 24.78 0.6 33.1 94 -0.2 31.6
09:45 1010 29.83 839 24.78 0.5 32.8 94 -0.3 31.4
09:50 1010 29.83 839 24.78 0.4 32.7 94 -0.4 31.3
09:55 1010 29.83 839 24.78 0.3 32.6 95 -0.4 31.2
10:00 1010 29.83 839 24.78 0.3 32.6 95 -0.4 31.3
10:05 1010 29.83 839 24.78 0.4 32.6 95 -0.4 31.3
10:10 1010 29.83 840 24.81 0.4 32.6 95 -0.4 31.3
10:15 1010 29.83 840 24.81 0.4 32.7 95 -0.3 31.4
10:20 1010 29.83 840 24.81 0.4 32.6 95 -0.4 31.3
10:25 1010 29.83 840 24.81 0.3 32.5 95 -0.4 31.2
10:30 1011 29.85 840 24.81 0.2 32.4 95 -0.4 31.2
10:35 1011 29.85 840 24.81 0.1 32.3 96 -0.5 31.1
10:40 1011 29.85 840 24.81 0.1 32.2 96 -0.5 31.1
10:45 1011 29.85 840 24.81 0.1 32.2 96 -0.5 31.2
10:50 1011 29.85 840 24.81 0.2 32.3 96 -0.4 31.3
10:55 1011 29.85 840 24.81 0.2 32.4 96 -0.3 31.4
11:00 1011 29.85 840 24.81 0.3 32.6 96 -0.2 31.6
11:05 1011 29.85 840 24.81 0.3 32.5 96 -0.3 31.4
11:10 1011 29.85 840 24.81 0.3 32.5 96 -0.3 31.5
11:15 1011 29.85 840 24.81 0.3 32.5 96 -0.3 31.4
11:20 1011 29.85 840 24.81 0.3 32.5 96 -0.3 31.5
11:25 1011 29.85 840 24.81 0.2 32.4 96 -0.4 31.3
11:30 1011 29.85 840 24.81 0.2 32.3 96 -0.4 31.3
11:35 1011 29.85 840 24.81 0.1 32.1 95 -0.7 30.7
11:40 1012 29.88 841 24.83 -0.7 30.7 94 -1.5 29.3
11:45 1012 29.88 841 24.83 -1.1 30 95 -1.9 28.6
11:50 1012 29.88 841 24.83 -1.4 29.4 94 -2.2 28
11:55 1012 29.88 841 24.83 -1.9 28.6 94 -2.7 27.1
12:00 1012 29.88 841 24.83 -2.1 28.3 95 -2.8 27
12:05 1012 29.88 841 24.83 -2 28.5 95 -2.6 27.3
12:10 1012 29.88 842 24.86 -1.7 29 95 -2.3 27.8
12:15 1013 29.91 842 24.86 -1.6 29.1 95 -2.3 27.9
12:20 1013 29.91 842 24.86 -1.8 28.8 94 -2.6 27.4
12:25 1013 29.91 842 24.86 -2 28.3 94 -2.8 26.9
12:30 1013 29.91 842 24.86 -2.4 27.8 94 -3.2 26.2
12:35 1013 29.91 842 24.86 -2.7 27.1 93 -3.8 25.2
12:40 1013 29.91 842 24.86 -3 26.6 93 -3.9 24.9
12:45 1013 29.91 842 24.86 -3.1 26.4 94 -4 24.7
12:50 1013 29.91 843 24.89 -3.2 26.2 93 -4.2 24.4
12:55 1014 29.94 843 24.89 -3.4 26 93 -4.4 24.2
13:00 1014 29.94 843 24.89 -3.5 25.7 92 -4.6 23.8
13:05 1014 29.94 843 24.89 -3.8 25.2 91 -5 23.1
13:10 1014 29.94 843 24.89 -4 24.8 92 -5.1 22.8
13:15 1014 29.94 843 24.89 -4 24.8 93 -5 23.1
13:20 1014 29.94 843 24.89 -4 24.8 92 -5.1 22.8
13:25 1014 29.94 843 24.89 -4 24.7 92 -5.1 22.8
13:30 1014 29.94 843 24.89 -4 24.8 92 -5.1 22.8
13:35 1014 29.94 844 24.92 -4.2 24.5 92 -5.3 22.4
13:40 1014 29.94 844 24.92 -4.1 24.5 92 -5.2 22.6
13:45 1015 29.97 844 24.92 -3.9 24.9 92 -5.1 22.8
13:50 1015 29.97 844 24.92 -3.9 24.9 92 -5.1 22.9
13:55 1015 29.97 844 24.92 -4 24.8 92 -5.1 22.8
14:00 1015 29.97 844 24.92 -4 24.8 91 -5.2 22.6
14:05 1015 29.97 844 24.92 -4 24.7 92 -5.2 22.6
14:10 1015 29.97 844 24.92 -4 24.7 90 -5.4 22.2
14:15 1015 29.97 844 24.92 -4.3 24.3 89 -5.8 21.6
14:20 1015 29.97 845 24.95 -4.5 23.9 89 -6 21.1
14:25 1015 29.97 845 24.95 -4.6 23.8 89 -6.1 21
14:30 1015 29.97 845 24.95 -4.6 23.7 89 -6.2 20.8
14:35 1016 30 845 24.95 -4.7 23.6 87 -6.6 20.2
14:40 1016 30 845 24.95 -5 23 88 -6.7 19.9
14:45 1016 30 845 24.95 -5.2 22.7 82 -7.7 18.1
14:50 1016 30 845 24.95 -5.7 21.7 87 -7.5 18.5
14:55 1016 30 845 24.95 -5.6 21.9 87 -7.4 18.6
15:00 1016 30 845 24.95 -5.7 21.7 87 -7.5 18.5
15:05 1016 30 845 24.95 -5.9 21.3 87 -7.8 17.9
15:10 1016 30 845 24.95 -6.2 20.8 86 -8.2 17.2
15:15 1016 30 845 24.95 -6.3 20.6 85 -8.5 16.7
15:20 1016 30 846 24.98 -6.6 20.1 86 -8.5 16.6
15:25 1016 30 846 24.98 -6.7 20 86 -8.7 16.4
15:30 1017 30.03 846 24.98 -6.8 19.8 84 -9.1 15.7
15:35 1017 30.03 846 24.98 -7.1 19.2 84 -9.3 15.3
15:40 1017 30.03 846 24.98 -7.3 18.8 86 -9.2 15.4
15:45 1017 30.03 846 24.98 -7.3 18.9 86 -9.3 15.3
15:50 1017 30.03 846 24.98 -7.3 18.8 84 -9.6 14.8
15:55 1017 30.03 846 24.98 -7.5 18.5 83 -9.9 14.2
16:00 1017 30.03 846 24.98 -7.8 17.9 84 -10.1 13.9
16:05 1017 30.03 846 24.98 -8 17.6 87 -9.9 14.3
16:10 1017 30.03 847 25.01 -7.8 17.9 87 -9.7 14.6
16:15 1017 30.03 847 25.01 -7.7 18.1 85 -9.9 14.2
16:20 1018 30.06 847 25.01 -7.8 18 86 -9.7 14.5
16:25 1018 30.06 847 25.01 -7.7 18.1 84 -9.9 14.1
16:30 1018 30.06 847 25.01 -7.8 18 85 -9.9 14.2
16:35 1018 30.06 847 25.01 -7.8 18.1 85 -9.9 14.2
16:40 1018 30.06 847 25.01 -7.8 18 84 -10 14
16:45 1018 30.06 847 25.01 -7.9 17.9 85 -9.9 14.2
16:50 1018 30.06 847 25.01 -7.9 17.8 86 -9.9 14.2
16:55 1018 30.06 847 25.01 -7.8 18 86 -9.7 14.5
17:00 1018 30.06 847 25.01 -7.8 17.9 86 -9.7 14.5
17:05 1018 30.06 848 25.04 -7.9 17.9 86 -9.8 14.4
17:10 1018 30.06 848 25.04 -7.9 17.7 83 -10.3 13.5
17:15 1019 30.09 848 25.04 -8.1 17.4 85 -10.2 13.6
17:20 1019 30.09 848 25.04 -8.2 17.2 84 -10.5 13.2
17:25 1019 30.09 848 25.04 -8.4 16.8 85 -10.6 13
17:30 1019 30.09 848 25.04 -8.5 16.7 85 -10.6 12.8
17:35 1019 30.09 848 25.04 -8.6 16.6 86 -10.5 13.2
17:40 1019 30.09 848 25.04 -8.5 16.7 85 -10.6 12.9
17:45 1019 30.09 848 25.04 -8.6 16.6 84 -10.8 12.6
17:50 1019 30.09 848 25.04 -8.8 16.3 84 -11 12.3
17:55 1019 30.09 849 25.07 -8.9 15.9 85 -11 12.2
18:00 1019 30.09 849 25.07 -9.1 15.6 86 -11 12.2
18:05 1020 30.12 849 25.07 -9.1 15.6 84 -11.3 11.6
18:10 1020 30.12 849 25.07 -9.1 15.6 84 -11.3 11.7
18:15 1020 30.12 849 25.07 -9.2 15.4 84 -11.4 11.4
18:20 1020 30.12 849 25.07 -9.4 15.1 85 -11.4 11.5
18:25 1020 30.12 849 25.07 -9.4 15.1 85 -11.4 11.4
18:30 1020 30.12 849 25.07 -9.5 15 86 -11.5 11.4
18:35 1020 30.12 850 25.1 -9.6 14.8 85 -11.6 11
18:40 1020 30.12 850 25.1 -9.7 14.6 85 -11.8 10.8
18:45 1021 30.15 850 25.1 -9.7 14.5 85 -11.8 10.7
18:50 1021 30.15 850 25.1 -9.8 14.4 84 -12 10.5
18:55 1021 30.15 850 25.1 -10 14 83 -12.3 9.8
19:00 1021 30.15 850 25.1 -10.3 13.5 84 -12.4 9.6
19:05 1021 30.15 850 25.1 -10.3 13.4 85 -12.4 9.7
19:10 1021 30.15 850 25.1 -10.4 13.3 85 -12.5 9.6
19:15 1021 30.15 850 25.1 -10.4 13.3 86 -12.2 10
19:20 1021 30.15 851 25.13 -10.3 13.4 86 -12.3 9.9
19:25 1021 30.15 851 25.13 -10.4 13.3 85 -12.5 9.6
19:30 1021 30.15 851 25.13 -10.4 13.3 85 -12.5 9.5
19:35 1022 30.18 851 25.13 -10.5 13.2 84 -12.7 9.2
19:40 1022 30.18 851 25.13 -10.6 13 85 -12.6 9.2
19:45 1022 30.18 851 25.13 -10.6 12.9 85 -12.7 9.1
19:50 1022 30.18 851 25.13 -10.8 12.7 84 -12.9 8.7
19:55 1022 30.18 851 25.13 -10.8 12.5 85 -12.9 8.8
20:00 1022 30.18 851 25.13 -10.9 12.3 85 -12.9 8.7
20:05 1022 30.18 851 25.13 -11 12.3 87 -12.8 9
20:10 1022 30.18 851 25.13 -10.8 12.5 86 -12.8 9
20:15 1022 30.18 851 25.13 -10.8 12.5 86 -12.8 9
20:20 1022 30.18 851 25.13 -10.9 12.5 85 -12.9 8.7
20:25 1022 30.18 851 25.13 -10.7 12.7 86 -12.6 9.3
20:30 1022 30.18 851 25.13 -10.5 13.1 86 -12.4 9.6
20:35 1022 30.18 851 25.13 -10.3 13.4 86 -12.2 10
20:40 1022 30.18 851 25.13 -10.3 13.5 83 -12.6 9.4
20:45 1022 30.18 851 25.13 -10.6 13 84 -12.8 9
20:50 1022 30.18 852 25.16 -11 12.2 86 -12.8 8.9
20:55 1022 30.18 852 25.16 -11.1 11.9 86 -13.1 8.5
21:00 1022 30.18 852 25.16 -11.2 11.8 86 -13.2 8.3
21:05 1023 30.21 852 25.16 -11.4 11.5 87 -13.2 8.3
21:10 1023 30.21 852 25.16 -11.4 11.5 86 -13.3 8.1
21:15 1023 30.21 852 25.16 -11.4 11.4 87 -13.2 8.2
21:20 1023 30.21 852 25.16 -11.4 11.4 88 -13.1 8.4
21:25 1023 30.21 852 25.16 -11.4 11.5 87 -13.1 8.4
21:30 1023 30.21 852 25.16 -11.4 11.4 88 -13.1 8.5
21:35 1023 30.21 852 25.16 -11.5 11.4 87 -13.2 8.2
21:40 1023 30.21 852 25.16 -11.7 11 87 -13.4 7.9
21:45 1023 30.21 852 25.16 -11.8 10.8 87 -13.5 7.6
21:50 1023 30.21 852 25.16 -11.9 10.7 88 -13.5 7.6
21:55 1023 30.21 852 25.16 -11.8 10.8 87 -13.5 7.6
22:00 1023 30.21 852 25.16 -11.8 10.8 87 -13.5 7.7
22:05 1023 30.21 852 25.16 -11.6 11.1 88 -13.2 8.2
22:10 1023 30.21 852 25.16 -11.4 11.4 85 -13.4 7.9
22:15 1023 30.21 852 25.16 -11.6 11 85 -13.6 7.5
22:20 1023 30.21 852 25.16 -11.8 10.8 86 -13.6 7.5
22:25 1023 30.21 852 25.16 -11.8 10.8 85 -13.8 7.1
22:30 1023 30.21 852 25.16 -11.9 10.5 86 -13.8 7.1
22:35 1023 30.21 852 25.16 -11.9 10.6 86 -13.8 7.1
22:40 1023 30.21 852 25.16 -11.9 10.6 85 -13.9 6.9
22:45 1023 30.21 853 25.19 -11.9 10.5 84 -14.1 6.7
22:50 1023 30.21 853 25.19 -11.9 10.6 85 -13.9 7
22:55 1023 30.21 853 25.19 -11.9 10.7 85 -13.8 7.1
23:00 1023 30.21 853 25.19 -11.8 10.7 84 -14 6.7
23:05 1023 30.21 853 25.19 -12.1 10.2 85 -14.1 6.7
23:10 1023 30.21 853 25.19 -12.3 9.8 86 -14.2 6.5
23:15 1023 30.21 853 25.19 -12.5 9.6 86 -14.3 6.3
23:20 1023 30.21 853 25.19 -12.5 9.6 86 -14.3 6.3
23:25 1023 30.21 853 25.19 -12.5 9.4 86 -14.4 6.1
23:30 1023 30.21 853 25.19 -12.5 9.4 86 -14.4 6
23:35 1023 30.21 853 25.19 -12.5 9.6 85 -14.4 6
23:40 1023 30.21 853 25.19 -12.5 9.5 85 -14.5 5.9
23:45 1023 30.21 853 25.19 -12.6 9.4 86 -14.5 5.9
23:50 1024 30.24 853 25.19 -12.6 9.4 87 -14.4 6.2
23:55 1024 30.24 853 25.19 -12.5 9.6 85 -14.4 6
24:00 1024 30.24 853 25.19 -12.5 9.4 86 -14.4 6